sensor_id;sensor_type;location;lat;lon;timestamp;temperature;humidity
17571;DHT22;8903;52.220;20.978;2022-07-06T00:01:40;16.90;99.90
17571;DHT22;8903;52.220;20.978;2022-07-06T00:04:07;16.90;99.90
17571;DHT22;8903;52.220;20.978;2022-07-06T00:06:34;16.90;99.90
17571;DHT22;8903;52.220;20.978;2022-07-06T00:09:01;16.90;99.90
17571;DHT22;8903;52.220;20.978;2022-07-06T00:11:27;16.90;99.90
17571;DHT22;8903;52.220;20.978;2022-07-06T00:13:55;16.90;99.90
17571;DHT22;8903;52.220;20.978;2022-07-06T00:16:22;16.90;99.90
17571;DHT22;8903;52.220;20.978;2022-07-06T00:18:50;16.90;99.90
17571;DHT22;8903;52.220;20.978;2022-07-06T00:21:17;16.90;99.90
17571;DHT22;8903;52.220;20.978;2022-07-06T00:23:44;16.80;99.90
17571;DHT22;8903;52.220;20.978;2022-07-06T00:26:11;16.70;99.90
17571;DHT22;8903;52.220;20.978;2022-07-06T00:28:38;16.70;99.90
17571;DHT22;8903;52.220;20.978;2022-07-06T00:31:04;16.70;99.90
17571;DHT22;8903;52.220;20.978;2022-07-06T00:33:32;16.50;99.90
17571;DHT22;8903;52.220;20.978;2022-07-06T00:36:00;16.30;99.90
17571;DHT22;8903;52.220;20.978;2022-07-06T00:38:26;16.30;99.90
17571;DHT22;8903;52.220;20.978;2022-07-06T00:40:53;16.30;99.90
17571;DHT22;8903;52.220;20.978;2022-07-06T00:43:20;16.40;99.90
17571;DHT22;8903;52.220;20.978;2022-07-06T00:45:47;16.40;99.90
17571;DHT22;8903;52.220;20.978;2022-07-06T00:48:13;16.40;99.90
17571;DHT22;8903;52.220;20.978;2022-07-06T00:50:41;16.40;99.90
17571;DHT22;8903;52.220;20.978;2022-07-06T00:53:09;16.30;99.90
17571;DHT22;8903;52.220;20.978;2022-07-06T00:55:37;16.30;99.90
17571;DHT22;8903;52.220;20.978;2022-07-06T00:58:05;16.20;99.90
17571;DHT22;8903;52.220;20.978;2022-07-06T01:00:35;16.20;99.90
17571;DHT22;8903;52.220;20.978;2022-07-06T01:03:02;16.20;99.90
17571;DHT22;8903;52.220;20.978;2022-07-06T01:05:29;16.20;99.90
17571;DHT22;8903;52.220;20.978;2022-07-06T01:07:56;16.20;99.90
17571;DHT22;8903;52.220;20.978;2022-07-06T01:10:24;16.10;99.90
17571;DHT22;8903;52.220;20.978;2022-07-06T01:12:51;16.10;99.90
17571;DHT22;8903;52.220;20.978;2022-07-06T01:15:21;16.10;99.90
17571;DHT22;8903;52.220;20.978;2022-07-06T01:17:49;16.10;99.90
17571;DHT22;8903;52.220;20.978;2022-07-06T01:20:20;16.10;99.90
17571;DHT22;8903;52.220;20.978;2022-07-06T01:22:47;16.20;99.90
17571;DHT22;8903;52.220;20.978;2022-07-06T01:25:14;16.10;99.90
17571;DHT22;8903;52.220;20.978;2022-07-06T01:27:41;16.00;99.90
17571;DHT22;8903;52.220;20.978;2022-07-06T01:30:09;16.00;99.90
17571;DHT22;8903;52.220;20.978;2022-07-06T01:32:36;15.90;99.90
17571;DHT22;8903;52.220;20.978;2022-07-06T01:35:04;15.90;99.90
17571;DHT22;8903;52.220;20.978;2022-07-06T01:37:32;15.90;99.90
17571;DHT22;8903;52.220;20.978;2022-07-06T01:39:59;15.90;99.90
17571;DHT22;8903;52.220;20.978;2022-07-06T01:42:26;15.80;99.90
17571;DHT22;8903;52.220;20.978;2022-07-06T01:44:53;15.80;99.90
17571;DHT22;8903;52.220;20.978;2022-07-06T01:47:20;15.80;99.90
17571;DHT22;8903;52.220;20.978;2022-07-06T01:49:50;15.80;99.90
17571;DHT22;8903;52.220;20.978;2022-07-06T01:52:17;15.80;99.90
17571;DHT22;8903;52.220;20.978;2022-07-06T01:54:45;15.90;99.90
17571;DHT22;8903;52.220;20.978;2022-07-06T01:57:12;15.90;99.90
17571;DHT22;8903;52.220;20.978;2022-07-06T01:59:39;15.90;99.90
17571;DHT22;8903;52.220;20.978;2022-07-06T02:02:05;15.90;99.90
17571;DHT22;8903;52.220;20.978;2022-07-06T02:04:32;15.90;99.90
17571;DHT22;8903;52.220;20.978;2022-07-06T02:07:00;15.90;99.90
17571;DHT22;8903;52.220;20.978;2022-07-06T02:09:27;16.50;99.90
17571;DHT22;8903;52.220;20.978;2022-07-06T02:11:55;16.00;99.90
17571;DHT22;8903;52.220;20.978;2022-07-06T02:14:22;16.00;99.90
17571;DHT22;8903;52.220;20.978;2022-07-06T02:16:49;16.00;99.90
17571;DHT22;8903;52.220;20.978;2022-07-06T02:19:17;16.10;99.90
17571;DHT22;8903;52.220;20.978;2022-07-06T02:21:44;16.10;99.90
17571;DHT22;8903;52.220;20.978;2022-07-06T02:24:11;16.10;99.90
17571;DHT22;8903;52.220;20.978;2022-07-06T02:26:39;16.10;99.90
17571;DHT22;8903;52.220;20.978;2022-07-06T02:29:07;16.10;99.90
17571;DHT22;8903;52.220;20.978;2022-07-06T02:31:34;16.10;99.90
17571;DHT22;8903;52.220;20.978;2022-07-06T02:34:01;16.10;99.90
17571;DHT22;8903;52.220;20.978;2022-07-06T02:36:28;16.10;99.90
17571;DHT22;8903;52.220;20.978;2022-07-06T02:38:54;16.10;99.90
17571;DHT22;8903;52.220;20.978;2022-07-06T02:41:21;16.10;99.90
17571;DHT22;8903;52.220;20.978;2022-07-06T02:43:48;16.10;99.90
17571;DHT22;8903;52.220;20.978;2022-07-06T02:46:16;16.10;99.90
17571;DHT22;8903;52.220;20.978;2022-07-06T02:48:44;16.10;99.90
17571;DHT22;8903;52.220;20.978;2022-07-06T02:51:11;16.10;99.90
17571;DHT22;8903;52.220;20.978;2022-07-06T02:53:38;16.20;99.90
17571;DHT22;8903;52.220;20.978;2022-07-06T02:56:06;16.20;99.90
17571;DHT22;8903;52.220;20.978;2022-07-06T02:58:34;16.20;99.90
17571;DHT22;8903;52.220;20.978;2022-07-06T03:01:00;16.20;99.90
17571;DHT22;8903;52.220;20.978;2022-07-06T03:03:28;16.20;99.90
17571;DHT22;8903;52.220;20.978;2022-07-06T03:05:56;16.20;99.90
17571;DHT22;8903;52.220;20.978;2022-07-06T03:08:23;16.30;99.90
17571;DHT22;8903;52.220;20.978;2022-07-06T03:10:50;16.30;99.90
17571;DHT22;8903;52.220;20.978;2022-07-06T03:13:17;16.20;99.90
17571;DHT22;8903;52.220;20.978;2022-07-06T03:15:45;16.20;99.90
17571;DHT22;8903;52.220;20.978;2022-07-06T03:18:11;16.20;99.90
17571;DHT22;8903;52.220;20.978;2022-07-06T03:20:39;16.20;99.90
17571;DHT22;8903;52.220;20.978;2022-07-06T03:23:09;16.30;99.90
17571;DHT22;8903;52.220;20.978;2022-07-06T03:25:36;16.30;99.90
17571;DHT22;8903;52.220;20.978;2022-07-06T03:28:03;16.20;99.90
17571;DHT22;8903;52.220;20.978;2022-07-06T03:30:30;16.30;99.90
17571;DHT22;8903;52.220;20.978;2022-07-06T03:32:57;16.30;99.90
17571;DHT22;8903;52.220;20.978;2022-07-06T03:35:27;16.30;99.90
17571;DHT22;8903;52.220;20.978;2022-07-06T03:37:56;16.30;99.90
17571;DHT22;8903;52.220;20.978;2022-07-06T03:40:26;16.30;99.90
17571;DHT22;8903;52.220;20.978;2022-07-06T03:42:53;16.30;99.90
17571;DHT22;8903;52.220;20.978;2022-07-06T03:45:20;16.30;99.90
17571;DHT22;8903;52.220;20.978;2022-07-06T03:47:47;16.30;99.90
17571;DHT22;8903;52.220;20.978;2022-07-06T03:50:14;16.30;99.90
17571;DHT22;8903;52.220;20.978;2022-07-06T03:52:41;16.40;99.90
17571;DHT22;8903;52.220;20.978;2022-07-06T03:55:10;16.40;99.90
17571;DHT22;8903;52.220;20.978;2022-07-06T03:57:42;16.40;99.90
17571;DHT22;8903;52.220;20.978;2022-07-06T04:00:13;16.40;99.90
17571;DHT22;8903;52.220;20.978;2022-07-06T04:02:42;16.40;99.90
17571;DHT22;8903;52.220;20.978;2022-07-06T04:05:15;16.50;99.90
17571;DHT22;8903;52.220;20.978;2022-07-06T04:07:46;16.50;99.90
17571;DHT22;8903;52.220;20.978;2022-07-06T04:10:14;16.50;99.90
17571;DHT22;8903;52.220;20.978;2022-07-06T04:12:41;16.50;99.90
17571;DHT22;8903;52.220;20.978;2022-07-06T04:15:09;16.50;99.90
17571;DHT22;8903;52.220;20.978;2022-07-06T04:17:36;16.50;99.90
17571;DHT22;8903;52.220;20.978;2022-07-06T04:20:32;16.40;99.90
17571;DHT22;8903;52.220;20.978;2022-07-06T04:23:00;16.40;99.90
17571;DHT22;8903;52.220;20.978;2022-07-06T04:25:28;16.40;99.90
17571;DHT22;8903;52.220;20.978;2022-07-06T04:27:58;16.40;99.90
17571;DHT22;8903;52.220;20.978;2022-07-06T04:30:27;16.50;99.90
17571;DHT22;8903;52.220;20.978;2022-07-06T04:32:54;16.50;99.90
17571;DHT22;8903;52.220;20.978;2022-07-06T04:35:23;16.50;99.90
17571;DHT22;8903;52.220;20.978;2022-07-06T04:37:52;16.60;99.90
17571;DHT22;8903;52.220;20.978;2022-07-06T04:40:20;16.60;99.90
17571;DHT22;8903;52.220;20.978;2022-07-06T04:42:51;16.60;99.90
17571;DHT22;8903;52.220;20.978;2022-07-06T04:45:19;16.60;99.90
17571;DHT22;8903;52.220;20.978;2022-07-06T04:47:47;16.60;99.90
17571;DHT22;8903;52.220;20.978;2022-07-06T04:50:14;16.70;99.90
17571;DHT22;8903;52.220;20.978;2022-07-06T04:52:42;16.70;99.90
17571;DHT22;8903;52.220;20.978;2022-07-06T04:55:09;16.70;99.90
17571;DHT22;8903;52.220;20.978;2022-07-06T04:57:36;16.70;99.90
17571;DHT22;8903;52.220;20.978;2022-07-06T05:00:06;16.80;99.90
17571;DHT22;8903;52.220;20.978;2022-07-06T05:02:33;16.80;99.90
17571;DHT22;8903;52.220;20.978;2022-07-06T05:05:00;16.80;99.90
17571;DHT22;8903;52.220;20.978;2022-07-06T05:07:27;16.80;99.90
17571;DHT22;8903;52.220;20.978;2022-07-06T05:09:56;16.80;99.90
17571;DHT22;8903;52.220;20.978;2022-07-06T05:12:22;16.80;99.90
17571;DHT22;8903;52.220;20.978;2022-07-06T05:14:50;16.70;99.90
17571;DHT22;8903;52.220;20.978;2022-07-06T05:17:20;16.80;99.90
17571;DHT22;8903;52.220;20.978;2022-07-06T05:19:47;16.90;99.90
17571;DHT22;8903;52.220;20.978;2022-07-06T05:22:14;17.00;99.90
17571;DHT22;8903;52.220;20.978;2022-07-06T05:24:41;17.10;99.90
17571;DHT22;8903;52.220;20.978;2022-07-06T05:27:07;17.20;99.90
17571;DHT22;8903;52.220;20.978;2022-07-06T05:29:34;17.40;99.90
17571;DHT22;8903;52.220;20.978;2022-07-06T05:32:01;17.50;99.90
17571;DHT22;8903;52.220;20.978;2022-07-06T05:34:30;17.50;99.90
17571;DHT22;8903;52.220;20.978;2022-07-06T05:36:56;17.60;99.90
17571;DHT22;8903;52.220;20.978;2022-07-06T05:39:23;17.70;99.90
17571;DHT22;8903;52.220;20.978;2022-07-06T05:41:51;17.80;99.90
17571;DHT22;8903;52.220;20.978;2022-07-06T05:44:19;17.80;99.90
17571;DHT22;8903;52.220;20.978;2022-07-06T05:46:46;17.80;99.90
17571;DHT22;8903;52.220;20.978;2022-07-06T05:49:14;17.70;99.90
17571;DHT22;8903;52.220;20.978;2022-07-06T05:52:11;17.60;99.90
17571;DHT22;8903;52.220;20.978;2022-07-06T05:54:37;17.50;99.90
17571;DHT22;8903;52.220;20.978;2022-07-06T05:57:04;17.40;99.90
17571;DHT22;8903;52.220;20.978;2022-07-06T05:59:31;17.40;99.90
17571;DHT22;8903;52.220;20.978;2022-07-06T06:01:59;17.30;99.90
17571;DHT22;8903;52.220;20.978;2022-07-06T06:04:25;17.30;99.90
17571;DHT22;8903;52.220;20.978;2022-07-06T06:06:52;17.40;99.90
17571;DHT22;8903;52.220;20.978;2022-07-06T06:09:20;17.50;99.90
17571;DHT22;8903;52.220;20.978;2022-07-06T06:11:47;17.60;99.90
17571;DHT22;8903;52.220;20.978;2022-07-06T06:14:14;17.70;99.90
17571;DHT22;8903;52.220;20.978;2022-07-06T06:16:41;17.80;99.90
17571;DHT22;8903;52.220;20.978;2022-07-06T06:19:08;17.90;99.90
17571;DHT22;8903;52.220;20.978;2022-07-06T06:21:34;18.00;99.90
17571;DHT22;8903;52.220;20.978;2022-07-06T06:24:01;17.80;99.90
17571;DHT22;8903;52.220;20.978;2022-07-06T06:26:29;17.70;99.90
17571;DHT22;8903;52.220;20.978;2022-07-06T06:28:56;17.50;99.90
17571;DHT22;8903;52.220;20.978;2022-07-06T06:31:23;17.40;99.90
17571;DHT22;8903;52.220;20.978;2022-07-06T06:33:49;17.40;99.90
17571;DHT22;8903;52.220;20.978;2022-07-06T06:36:18;17.40;99.90
17571;DHT22;8903;52.220;20.978;2022-07-06T06:38:45;17.50;99.90
17571;DHT22;8903;52.220;20.978;2022-07-06T06:41:13;17.80;99.90
17571;DHT22;8903;52.220;20.978;2022-07-06T06:43:42;17.80;99.90
17571;DHT22;8903;52.220;20.978;2022-07-06T06:46:16;17.90;99.90
17571;DHT22;8903;52.220;20.978;2022-07-06T06:48:43;18.10;99.90
17571;DHT22;8903;52.220;20.978;2022-07-06T06:51:10;18.30;99.90
17571;DHT22;8903;52.220;20.978;2022-07-06T06:53:36;18.40;99.90
17571;DHT22;8903;52.220;20.978;2022-07-06T06:56:03;18.60;99.90
17571;DHT22;8903;52.220;20.978;2022-07-06T06:58:32;18.60;99.90
17571;DHT22;8903;52.220;20.978;2022-07-06T07:01:00;18.40;99.90
17571;DHT22;8903;52.220;20.978;2022-07-06T07:03:26;18.20;99.90
17571;DHT22;8903;52.220;20.978;2022-07-06T07:05:53;18.20;99.90
17571;DHT22;8903;52.220;20.978;2022-07-06T07:08:20;18.10;99.90
17571;DHT22;8903;52.220;20.978;2022-07-06T07:10:46;18.20;99.90
17571;DHT22;8903;52.220;20.978;2022-07-06T07:13:13;18.40;99.90
17571;DHT22;8903;52.220;20.978;2022-07-06T07:15:40;18.50;99.90
17571;DHT22;8903;52.220;20.978;2022-07-06T07:18:08;18.30;99.90
17571;DHT22;8903;52.220;20.978;2022-07-06T07:20:35;18.40;99.90
17571;DHT22;8903;52.220;20.978;2022-07-06T07:23:01;18.50;99.90
17571;DHT22;8903;52.220;20.978;2022-07-06T07:25:28;18.70;99.90
17571;DHT22;8903;52.220;20.978;2022-07-06T07:27:55;19.00;99.90
17571;DHT22;8903;52.220;20.978;2022-07-06T07:30:22;18.80;99.90
17571;DHT22;8903;52.220;20.978;2022-07-06T07:32:49;18.70;99.90
17571;DHT22;8903;52.220;20.978;2022-07-06T07:35:17;18.70;99.90
17571;DHT22;8903;52.220;20.978;2022-07-06T07:37:44;18.70;99.90
17571;DHT22;8903;52.220;20.978;2022-07-06T07:40:11;18.80;99.90
17571;DHT22;8903;52.220;20.978;2022-07-06T07:42:38;18.70;99.90
17571;DHT22;8903;52.220;20.978;2022-07-06T07:45:06;18.70;99.90
17571;DHT22;8903;52.220;20.978;2022-07-06T07:47:33;18.70;99.90
17571;DHT22;8903;52.220;20.978;2022-07-06T07:49:59;18.40;99.90
17571;DHT22;8903;52.220;20.978;2022-07-06T07:52:27;18.30;99.90
17571;DHT22;8903;52.220;20.978;2022-07-06T07:54:54;18.30;99.90
17571;DHT22;8903;52.220;20.978;2022-07-06T07:57:21;18.30;99.90
17571;DHT22;8903;52.220;20.978;2022-07-06T07:59:47;18.50;99.90
17571;DHT22;8903;52.220;20.978;2022-07-06T08:02:14;18.70;99.90
17571;DHT22;8903;52.220;20.978;2022-07-06T08:04:41;18.90;99.90
17571;DHT22;8903;52.220;20.978;2022-07-06T08:07:08;19.20;99.90
17571;DHT22;8903;52.220;20.978;2022-07-06T08:09:36;19.40;99.90
17571;DHT22;8903;52.220;20.978;2022-07-06T08:12:03;19.60;99.90
17571;DHT22;8903;52.220;20.978;2022-07-06T08:14:30;19.90;99.90
17571;DHT22;8903;52.220;20.978;2022-07-06T08:16:56;20.10;99.90
17571;DHT22;8903;52.220;20.978;2022-07-06T08:19:23;20.40;99.90
17571;DHT22;8903;52.220;20.978;2022-07-06T08:21:50;20.50;99.90
17571;DHT22;8903;52.220;20.978;2022-07-06T08:24:17;20.50;99.90
17571;DHT22;8903;52.220;20.978;2022-07-06T08:26:45;20.20;99.90
17571;DHT22;8903;52.220;20.978;2022-07-06T08:29:12;20.30;99.90
17571;DHT22;8903;52.220;20.978;2022-07-06T08:31:38;20.30;99.90
17571;DHT22;8903;52.220;20.978;2022-07-06T08:34:05;20.50;99.90
17571;DHT22;8903;52.220;20.978;2022-07-06T08:36:32;20.60;99.90
17571;DHT22;8903;52.220;20.978;2022-07-06T08:38:59;20.50;99.90
17571;DHT22;8903;52.220;20.978;2022-07-06T08:41:27;20.50;99.90
17571;DHT22;8903;52.220;20.978;2022-07-06T08:43:57;20.70;99.90
17571;DHT22;8903;52.220;20.978;2022-07-06T08:46:24;20.90;99.90
17571;DHT22;8903;52.220;20.978;2022-07-06T08:48:53;21.10;99.90
17571;DHT22;8903;52.220;20.978;2022-07-06T08:51:20;21.30;99.90
17571;DHT22;8903;52.220;20.978;2022-07-06T08:53:48;21.50;99.90
17571;DHT22;8903;52.220;20.978;2022-07-06T08:56:16;21.60;99.90
17571;DHT22;8903;52.220;20.978;2022-07-06T08:58:45;21.50;99.90
17571;DHT22;8903;52.220;20.978;2022-07-06T09:01:18;21.30;99.90
17571;DHT22;8903;52.220;20.978;2022-07-06T09:03:45;21.50;99.90
17571;DHT22;8903;52.220;20.978;2022-07-06T09:06:15;21.30;99.90
17571;DHT22;8903;52.220;20.978;2022-07-06T09:08:42;21.10;99.90
17571;DHT22;8903;52.220;20.978;2022-07-06T09:11:10;20.90;99.90
17571;DHT22;8903;52.220;20.978;2022-07-06T09:13:36;20.70;99.90
17571;DHT22;8903;52.220;20.978;2022-07-06T09:16:09;20.40;99.90
17571;DHT22;8903;52.220;20.978;2022-07-06T09:18:42;20.20;99.90
17571;DHT22;8903;52.220;20.978;2022-07-06T09:21:10;20.20;99.90
17571;DHT22;8903;52.220;20.978;2022-07-06T09:23:37;20.30;99.90
17571;DHT22;8903;52.220;20.978;2022-07-06T09:26:04;20.40;99.90
17571;DHT22;8903;52.220;20.978;2022-07-06T09:28:41;20.40;99.90
17571;DHT22;8903;52.220;20.978;2022-07-06T09:31:08;20.60;99.90
17571;DHT22;8903;52.220;20.978;2022-07-06T09:33:35;20.60;99.90
17571;DHT22;8903;52.220;20.978;2022-07-06T09:36:03;20.40;99.90
17571;DHT22;8903;52.220;20.978;2022-07-06T09:38:31;20.60;99.90
17571;DHT22;8903;52.220;20.978;2022-07-06T09:40:58;20.70;99.90
17571;DHT22;8903;52.220;20.978;2022-07-06T09:43:28;20.60;99.90
17571;DHT22;8903;52.220;20.978;2022-07-06T09:45:55;20.50;99.90
17571;DHT22;8903;52.220;20.978;2022-07-06T09:48:23;20.60;99.90
17571;DHT22;8903;52.220;20.978;2022-07-06T09:50:51;20.80;99.90
17571;DHT22;8903;52.220;20.978;2022-07-06T09:53:20;21.00;99.90
17571;DHT22;8903;52.220;20.978;2022-07-06T09:55:47;21.30;99.90
17571;DHT22;8903;52.220;20.978;2022-07-06T09:58:13;21.50;99.90
17571;DHT22;8903;52.220;20.978;2022-07-06T10:00:41;21.70;99.90
17571;DHT22;8903;52.220;20.978;2022-07-06T10:03:08;21.80;99.90
17571;DHT22;8903;52.220;20.978;2022-07-06T10:05:36;21.80;99.90
17571;DHT22;8903;52.220;20.978;2022-07-06T10:08:03;21.70;99.90
17571;DHT22;8903;52.220;20.978;2022-07-06T10:10:32;21.70;99.90
17571;DHT22;8903;52.220;20.978;2022-07-06T10:12:59;22.10;99.90
17571;DHT22;8903;52.220;20.978;2022-07-06T10:15:27;22.20;99.90
17571;DHT22;8903;52.220;20.978;2022-07-06T10:17:54;22.20;99.90
17571;DHT22;8903;52.220;20.978;2022-07-06T10:20:21;22.30;99.90
17571;DHT22;8903;52.220;20.978;2022-07-06T10:22:48;22.30;99.90
17571;DHT22;8903;52.220;20.978;2022-07-06T10:25:15;22.20;99.90
17571;DHT22;8903;52.220;20.978;2022-07-06T10:27:43;22.30;99.90
17571;DHT22;8903;52.220;20.978;2022-07-06T10:30:11;22.60;99.90
17571;DHT22;8903;52.220;20.978;2022-07-06T10:32:38;22.60;99.90
17571;DHT22;8903;52.220;20.978;2022-07-06T10:35:06;22.60;99.90
17571;DHT22;8903;52.220;20.978;2022-07-06T10:37:33;22.30;99.90
17571;DHT22;8903;52.220;20.978;2022-07-06T10:40:00;22.20;99.90
17571;DHT22;8903;52.220;20.978;2022-07-06T10:42:46;22.30;99.90
17571;DHT22;8903;52.220;20.978;2022-07-06T10:45:19;22.40;99.90
17571;DHT22;8903;52.220;20.978;2022-07-06T10:47:47;22.50;99.90
17571;DHT22;8903;52.220;20.978;2022-07-06T10:50:16;22.50;99.90
17571;DHT22;8903;52.220;20.978;2022-07-06T10:52:48;22.60;99.90
17571;DHT22;8903;52.220;20.978;2022-07-06T10:55:27;22.90;99.90
17571;DHT22;8903;52.220;20.978;2022-07-06T10:57:55;23.10;99.90
17571;DHT22;8903;52.220;20.978;2022-07-06T11:00:22;23.10;99.90
17571;DHT22;8903;52.220;20.978;2022-07-06T11:02:49;22.80;99.90
17571;DHT22;8903;52.220;20.978;2022-07-06T11:08:02;22.70;99.90
17571;DHT22;8903;52.220;20.978;2022-07-06T11:10:29;22.60;99.90
17571;DHT22;8903;52.220;20.978;2022-07-06T11:13:25;22.70;99.90
17571;DHT22;8903;52.220;20.978;2022-07-06T11:15:52;23.10;99.90
17571;DHT22;8903;52.220;20.978;2022-07-06T11:18:26;23.30;99.90
17571;DHT22;8903;52.220;20.978;2022-07-06T11:23:38;23.60;99.90
17571;DHT22;8903;52.220;20.978;2022-07-06T11:26:05;23.40;99.90
17571;DHT22;8903;52.220;20.978;2022-07-06T11:28:33;23.80;99.90
17571;DHT22;8903;52.220;20.978;2022-07-06T11:31:00;23.50;99.90
17571;DHT22;8903;52.220;20.978;2022-07-06T11:33:27;23.30;99.90
17571;DHT22;8903;52.220;20.978;2022-07-06T11:38:36;23.10;99.90
17571;DHT22;8903;52.220;20.978;2022-07-06T11:41:03;22.80;99.90
17571;DHT22;8903;52.220;20.978;2022-07-06T11:43:30;22.70;99.90
17571;DHT22;8903;52.220;20.978;2022-07-06T11:45:58;22.70;99.90
17571;DHT22;8903;52.220;20.978;2022-07-06T11:48:25;22.80;99.90
17571;DHT22;8903;52.220;20.978;2022-07-06T11:50:58;23.40;99.90
17571;DHT22;8903;52.220;20.978;2022-07-06T11:53:25;24.00;99.90
17571;DHT22;8903;52.220;20.978;2022-07-06T11:55:52;24.60;99.90
17571;DHT22;8903;52.220;20.978;2022-07-06T11:58:20;24.80;99.90
17571;DHT22;8903;52.220;20.978;2022-07-06T12:03:49;25.10;99.90
17571;DHT22;8903;52.220;20.978;2022-07-06T12:06:17;25.10;99.90
17571;DHT22;8903;52.220;20.978;2022-07-06T12:08:45;25.20;99.90
17571;DHT22;8903;52.220;20.978;2022-07-06T12:11:19;25.30;99.90
17571;DHT22;8903;52.220;20.978;2022-07-06T12:13:48;25.60;99.90
17571;DHT22;8903;52.220;20.978;2022-07-06T12:16:15;26.20;99.90
17571;DHT22;8903;52.220;20.978;2022-07-06T12:18:43;26.10;99.90
17571;DHT22;8903;52.220;20.978;2022-07-06T12:21:12;25.60;99.90
17571;DHT22;8903;52.220;20.978;2022-07-06T12:23:43;25.10;99.90
17571;DHT22;8903;52.220;20.978;2022-07-06T12:26:11;24.80;99.90
17571;DHT22;8903;52.220;20.978;2022-07-06T12:28:39;24.80;99.90
17571;DHT22;8903;52.220;20.978;2022-07-06T12:31:06;24.40;99.90
17571;DHT22;8903;52.220;20.978;2022-07-06T12:33:33;24.40;99.90
17571;DHT22;8903;52.220;20.978;2022-07-06T12:36:12;26.10;99.90
17571;DHT22;8903;52.220;20.978;2022-07-06T12:38:44;28.30;99.90
17571;DHT22;8903;52.220;20.978;2022-07-06T12:41:24;30.30;99.90
17571;DHT22;8903;52.220;20.978;2022-07-06T12:43:59;32.80;99.90
17571;DHT22;8903;52.220;20.978;2022-07-06T12:46:29;33.50;99.90
17571;DHT22;8903;52.220;20.978;2022-07-06T12:49:01;35.30;99.90
17571;DHT22;8903;52.220;20.978;2022-07-06T12:51:39;35.60;99.90
17571;DHT22;8903;52.220;20.978;2022-07-06T12:54:15;34.30;99.90
17571;DHT22;8903;52.220;20.978;2022-07-06T12:59:42;34.60;99.90
17571;DHT22;8903;52.220;20.978;2022-07-06T13:02:16;35.60;99.90
17571;DHT22;8903;52.220;20.978;2022-07-06T13:04:48;36.60;96.80
17571;DHT22;8903;52.220;20.978;2022-07-06T13:07:22;37.00;97.40
17571;DHT22;8903;52.220;20.978;2022-07-06T13:09:50;37.10;95.50
17571;DHT22;8903;52.220;20.978;2022-07-06T13:12:17;36.40;96.80
17571;DHT22;8903;52.220;20.978;2022-07-06T13:14:44;35.60;96.60
17571;DHT22;8903;52.220;20.978;2022-07-06T13:17:11;33.90;96.70
17571;DHT22;8903;52.220;20.978;2022-07-06T13:19:38;32.70;98.30
17571;DHT22;8903;52.220;20.978;2022-07-06T13:22:07;30.60;99.90
17571;DHT22;8903;52.220;20.978;2022-07-06T13:24:36;28.80;99.90
17571;DHT22;8903;52.220;20.978;2022-07-06T13:27:08;28.40;99.90
17571;DHT22;8903;52.220;20.978;2022-07-06T13:29:38;28.60;99.90
17571;DHT22;8903;52.220;20.978;2022-07-06T13:32:05;27.70;99.90
17571;DHT22;8903;52.220;20.978;2022-07-06T13:34:33;26.80;99.90
17571;DHT22;8903;52.220;20.978;2022-07-06T13:37:01;26.00;99.90
17571;DHT22;8903;52.220;20.978;2022-07-06T13:39:28;25.50;99.90
17571;DHT22;8903;52.220;20.978;2022-07-06T13:41:57;25.40;99.90
17571;DHT22;8903;52.220;20.978;2022-07-06T13:44:24;25.20;99.90
17571;DHT22;8903;52.220;20.978;2022-07-06T13:46:51;25.60;99.90
17571;DHT22;8903;52.220;20.978;2022-07-06T13:49:18;26.50;99.90
17571;DHT22;8903;52.220;20.978;2022-07-06T13:51:46;26.10;99.90
17571;DHT22;8903;52.220;20.978;2022-07-06T13:54:14;25.10;99.90
17571;DHT22;8903;52.220;20.978;2022-07-06T13:56:41;24.90;99.90
17571;DHT22;8903;52.220;20.978;2022-07-06T13:59:10;24.70;99.90
17571;DHT22;8903;52.220;20.978;2022-07-06T14:01:39;24.50;99.90
17571;DHT22;8903;52.220;20.978;2022-07-06T14:04:07;24.20;99.90
17571;DHT22;8903;52.220;20.978;2022-07-06T14:06:42;23.90;99.90
17571;DHT22;8903;52.220;20.978;2022-07-06T14:09:12;23.60;99.90
17571;DHT22;8903;52.220;20.978;2022-07-06T14:11:40;23.20;99.90
17571;DHT22;8903;52.220;20.978;2022-07-06T14:14:07;22.90;99.90
17571;DHT22;8903;52.220;20.978;2022-07-06T14:16:35;22.60;99.90
17571;DHT22;8903;52.220;20.978;2022-07-06T14:19:02;22.40;99.90
17571;DHT22;8903;52.220;20.978;2022-07-06T14:21:31;22.20;99.90
17571;DHT22;8903;52.220;20.978;2022-07-06T14:23:57;22.10;99.90
17571;DHT22;8903;52.220;20.978;2022-07-06T14:26:25;22.10;99.90
17571;DHT22;8903;52.220;20.978;2022-07-06T14:28:53;22.00;99.90
17571;DHT22;8903;52.220;20.978;2022-07-06T14:31:20;21.90;99.90
17571;DHT22;8903;52.220;20.978;2022-07-06T14:33:48;21.90;99.90
17571;DHT22;8903;52.220;20.978;2022-07-06T14:36:15;22.00;99.90
17571;DHT22;8903;52.220;20.978;2022-07-06T14:38:42;22.00;99.90
17571;DHT22;8903;52.220;20.978;2022-07-06T14:41:09;21.90;99.90
17571;DHT22;8903;52.220;20.978;2022-07-06T14:43:36;22.00;99.90
17571;DHT22;8903;52.220;20.978;2022-07-06T14:46:03;22.00;99.90
17571;DHT22;8903;52.220;20.978;2022-07-06T14:48:30;22.00;99.90
17571;DHT22;8903;52.220;20.978;2022-07-06T14:50:59;22.00;99.90
17571;DHT22;8903;52.220;20.978;2022-07-06T14:53:27;22.10;99.90
17571;DHT22;8903;52.220;20.978;2022-07-06T14:55:54;22.30;99.90
17571;DHT22;8903;52.220;20.978;2022-07-06T14:58:23;22.30;99.90
17571;DHT22;8903;52.220;20.978;2022-07-06T15:00:50;22.10;99.90
17571;DHT22;8903;52.220;20.978;2022-07-06T15:03:17;22.10;99.90
17571;DHT22;8903;52.220;20.978;2022-07-06T15:05:44;20.40;99.90
17571;DHT22;8903;52.220;20.978;2022-07-06T15:08:14;21.90;99.90
17571;DHT22;8903;52.220;20.978;2022-07-06T15:10:43;22.00;99.90
17571;DHT22;8903;52.220;20.978;2022-07-06T15:13:11;22.10;99.90
17571;DHT22;8903;52.220;20.978;2022-07-06T15:15:38;22.10;99.90
17571;DHT22;8903;52.220;20.978;2022-07-06T15:18:05;21.90;99.90
17571;DHT22;8903;52.220;20.978;2022-07-06T15:20:31;21.70;99.90
17571;DHT22;8903;52.220;20.978;2022-07-06T15:23:01;21.70;99.90
17571;DHT22;8903;52.220;20.978;2022-07-06T15:25:29;21.60;99.90
17571;DHT22;8903;52.220;20.978;2022-07-06T15:27:56;21.30;99.90
17571;DHT22;8903;52.220;20.978;2022-07-06T15:30:23;21.10;99.90
17571;DHT22;8903;52.220;20.978;2022-07-06T15:32:50;20.90;99.90
17571;DHT22;8903;52.220;20.978;2022-07-06T15:35:17;20.60;99.90
17571;DHT22;8903;52.220;20.978;2022-07-06T15:37:43;20.30;99.90
17571;DHT22;8903;52.220;20.978;2022-07-06T15:40:11;20.00;99.90
17571;DHT22;8903;52.220;20.978;2022-07-06T15:42:57;19.90;99.90
17571;DHT22;8903;52.220;20.978;2022-07-06T15:45:24;19.70;99.90
17571;DHT22;8903;52.220;20.978;2022-07-06T15:47:51;19.70;99.90
17571;DHT22;8903;52.220;20.978;2022-07-06T15:50:18;19.50;99.90